Terminal Aerodrome Forecast
Issued by NWS

Home | Current Version | Previous Version | Text Only | Print | Product List | Glossary Off
Versions: 1 2 3 4 5 6 7 8 9 10 11 12 13 14 15 16 17 18

348
FTUS42 KMHX 252323
TAFISO
TAF
KISO 252323Z 2600/2624 15003KT P6SM SKC
     FM260900 00000KT 4SM BR SCT050
     FM261300 21004KT P6SM SCT200
      AMD LTD TO CLD VIS AND WIND=

USA.gov is the U.S. government's official web portal to all federal, state and local government web resources and services.